createdAt,value
2016-01-31T00:00:00.073Z,98.58
2016-01-31T00:01:00.051Z,98.21
2016-01-31T00:02:00.022Z,99.06
2016-01-31T00:02:59.993Z,99.06
2016-01-31T00:03:59.965Z,98.87
2016-01-31T00:04:59.937Z,98.21
2016-01-31T00:05:59.909Z,99.06
2016-01-31T00:06:59.879Z,99.34
2016-01-31T00:07:59.851Z,99.06
2016-01-31T00:08:59.823Z,99.06
2016-01-31T00:09:59.795Z,99.25
2016-01-31T00:10:59.767Z,99.15
2016-01-31T00:11:59.739Z,99.25
2016-01-31T00:12:59.710Z,98.87
2016-01-31T00:13:59.686Z,98.77
2016-01-31T00:14:59.639Z,99.15
2016-01-31T00:15:59.613Z,99.53
2016-01-31T00:16:59.600Z,98.02
2016-01-31T00:17:59.571Z,99.63
2016-01-31T00:18:59.543Z,99.44
2016-01-31T00:19:59.518Z,99.25
2016-01-31T00:20:59.473Z,99.15
2016-01-31T00:21:59.445Z,99.06
2016-01-31T00:22:59.415Z,99.53
2016-01-31T00:23:59.403Z,99.06
2016-01-31T00:24:59.375Z,98.87
2016-01-31T00:25:59.331Z,98.96
2016-01-31T00:26:59.302Z,98.87
2016-01-31T00:27:59.274Z,99.06
2016-01-31T00:28:59.243Z,99.15
2016-01-31T00:29:59.230Z,98.87
2016-01-31T00:30:59.188Z,99.06
2016-01-31T00:31:59.159Z,99.06
2016-01-31T00:32:59.147Z,98.21
2016-01-31T00:33:59.118Z,98.58
2016-01-31T00:34:59.089Z,98.3
2016-01-31T00:35:59.062Z,98.49
2016-01-31T00:36:59.018Z,98.96
2016-01-31T00:37:58.989Z,98.3
2016-01-31T00:38:58.960Z,98.21
2016-01-31T00:39:58.936Z,98.58
2016-01-31T00:40:58.922Z,98.39
2016-01-31T00:41:58.879Z,98.3
2016-01-31T00:42:58.850Z,98.21
2016-01-31T00:43:58.839Z,98.21
2016-01-31T00:44:58.795Z,98.39
2016-01-31T00:45:58.774Z,98.39
2016-01-31T00:46:58.746Z,98.21
2016-01-31T00:47:58.718Z,98.39
2016-01-31T00:48:58.678Z,99.25
2016-01-31T00:49:58.650Z,99.25
2016-01-31T00:50:58.624Z,98.49
2016-01-31T00:51:58.596Z,98.68
2016-01-31T00:52:58.568Z,98.49
2016-01-31T00:53:58.554Z,98.39
2016-01-31T00:54:58.511Z,98.39
2016-01-31T00:55:58.483Z,98.39
2016-01-31T00:56:58.455Z,98.77
2016-01-31T00:57:58.425Z,98.77
2016-01-31T00:58:58.413Z,99.06
2016-01-31T00:59:58.373Z,98.68
2016-01-31T01:00:58.345Z,98.39
2016-01-31T01:01:58.317Z,98.87
2016-01-31T01:02:58.288Z,98.96
2016-01-31T01:03:58.269Z,98.96
2016-01-31T01:04:58.240Z,98.49
2016-01-31T01:05:58.197Z,98.87
2016-01-31T01:06:58.168Z,99.06
2016-01-31T01:07:58.157Z,98.68
2016-01-31T01:08:58.112Z,98.87
2016-01-31T01:09:58.091Z,98.21
2016-01-31T01:10:58.062Z,98.58
2016-01-31T01:11:58.034Z,98.68
2016-01-31T01:12:58.005Z,98.68
2016-01-31T01:13:57.976Z,98.68
2016-01-31T01:14:57.932Z,98.77
2016-01-31T01:15:57.904Z,99.06
2016-01-31T01:16:57.891Z,98.96
2016-01-31T01:17:57.862Z,98.21
2016-01-31T01:18:57.819Z,98.21
2016-01-31T01:19:57.807Z,98.21
2016-01-31T01:20:57.777Z,98.39
2016-01-31T01:21:57.733Z,98.21
2016-01-31T01:22:57.705Z,99.25
2016-01-31T01:23:57.677Z,98.39
2016-01-31T01:24:57.649Z,98.21
2016-01-31T01:25:57.636Z,98.21
2016-01-31T01:26:57.608Z,98.21
2016-01-31T01:27:57.566Z,98.3
2016-01-31T01:28:57.536Z,98.21
2016-01-31T01:29:57.509Z,98.58
2016-01-31T01:30:57.479Z,98.68
2016-01-31T01:31:57.468Z,98.3
2016-01-31T01:32:57.436Z,98.11
2016-01-31T01:33:57.392Z,98.21
2016-01-31T01:34:57.365Z,98.49
2016-01-31T01:35:57.337Z,98.39
2016-01-31T01:36:57.308Z,98.39
2016-01-31T01:37:57.279Z,98.39
2016-01-31T01:38:57.252Z,98.49
2016-01-31T01:39:57.240Z,98.3
2016-01-31T01:40:57.195Z,98.21
2016-01-31T01:41:57.182Z,98.39
2016-01-31T01:42:57.139Z,98.39
2016-01-31T01:43:57.110Z,98.11
2016-01-31T01:44:57.082Z,98.39
2016-01-31T01:45:57.057Z,98.39
2016-01-31T01:46:57.029Z,98.3
2016-01-31T01:47:57.001Z,98.3
2016-01-31T01:48:56.973Z,98.11
2016-01-31T01:49:56.944Z,98.49
2016-01-31T01:50:56.915Z,98.58
2016-01-31T01:51:56.887Z,98.39
2016-01-31T01:52:56.859Z,98.39
2016-01-31T01:53:56.830Z,98.58
2016-01-31T01:54:56.801Z,98.58
2016-01-31T01:55:56.773Z,98.3
2016-01-31T01:56:56.745Z,98.39
2016-01-31T01:57:56.718Z,98.49
2016-01-31T01:58:56.690Z,98.11
2016-01-31T01:59:56.661Z,98.11
2016-01-31T02:00:56.633Z,98.39
2016-01-31T02:01:56.604Z,98.39
2016-01-31T02:02:56.577Z,98.39
2016-01-31T02:03:56.549Z,98.3
2016-01-31T02:04:56.520Z,98.11
2016-01-31T02:05:56.492Z,98.3
2016-01-31T02:06:56.464Z,98.3
2016-01-31T02:07:56.436Z,98.39
2016-01-31T02:08:56.407Z,98.49
2016-01-31T02:09:56.379Z,98.21
2016-01-31T02:10:56.350Z,98.39
2016-01-31T02:11:56.322Z,99.15
2016-01-31T02:12:56.293Z,98.39
2016-01-31T02:13:56.265Z,98.39
2016-01-31T02:14:56.236Z,98.39
2016-01-31T02:15:56.208Z,98.21
2016-01-31T02:16:56.183Z,98.58
2016-01-31T02:17:56.158Z,98.3
2016-01-31T02:18:56.130Z,98.3
2016-01-31T02:19:56.100Z,98.39
2016-01-31T02:20:56.072Z,98.39
2016-01-31T02:21:56.045Z,98.21
2016-01-31T02:22:56.016Z,98.49
2016-01-31T02:23:55.987Z,98.58
2016-01-31T02:24:55.959Z,98.58
2016-01-31T02:25:55.931Z,98.3
2016-01-31T02:26:55.891Z,98.21
2016-01-31T02:27:55.878Z,98.39
2016-01-31T02:28:55.849Z,98.21
2016-01-31T02:29:55.805Z,98.3
2016-01-31T02:30:55.777Z,98.39
2016-01-31T02:31:55.764Z,98.3
2016-01-31T02:32:55.720Z,98.02
2016-01-31T02:33:55.692Z,98.68
2016-01-31T02:34:55.679Z,98.49
2016-01-31T02:35:55.635Z,98.49
2016-01-31T02:36:55.621Z,98.49
2016-01-31T02:37:55.590Z,98.58
2016-01-31T02:38:55.563Z,98.49
2016-01-31T02:39:55.533Z,98.49
2016-01-31T02:40:55.504Z,98.39
2016-01-31T02:41:55.476Z,98.21
2016-01-31T02:42:55.448Z,98.11
2016-01-31T02:43:55.419Z,98.39
2016-01-31T02:44:55.391Z,98.21
2016-01-31T02:45:55.412Z,98.39
2016-01-31T02:46:55.320Z,98.3
2016-01-31T02:47:55.307Z,98.39
2016-01-31T02:48:55.281Z,98.21
2016-01-31T02:49:55.237Z,98.39
2016-01-31T02:50:55.209Z,98.3
2016-01-31T02:51:55.196Z,98.3
2016-01-31T02:52:55.167Z,98.3
2016-01-31T02:53:55.123Z,98.3
2016-01-31T02:54:55.111Z,98.3
2016-01-31T02:55:55.068Z,98.58
2016-01-31T02:56:55.039Z,98.49
2016-01-31T02:57:55.010Z,98.3
2016-01-31T02:58:54.998Z,98.3
2016-01-31T02:59:54.970Z,98.39
2016-01-31T03:00:54.929Z,98.58
2016-01-31T03:01:54.916Z,98.3
2016-01-31T03:02:54.872Z,98.49
2016-01-31T03:03:54.844Z,98.21
2016-01-31T03:04:54.939Z,98.21
2016-01-31T03:05:54.787Z,98.21
2016-01-31T03:06:54.759Z,98.11
2016-01-31T03:07:54.729Z,98.58
2016-01-31T03:08:54.701Z,98.11
2016-01-31T03:09:54.676Z,98.58
2016-01-31T03:10:54.647Z,98.58
2016-01-31T03:11:54.618Z,98.68
2016-01-31T03:12:54.590Z,98.21
2016-01-31T03:13:54.563Z,98.68
2016-01-31T03:14:54.539Z,98.39
2016-01-31T03:15:54.510Z,98.58
2016-01-31T03:16:54.482Z,98.58
2016-01-31T03:17:54.454Z,98.58
2016-01-31T03:18:54.425Z,98.58
2016-01-31T03:19:54.397Z,98.39
2016-01-31T03:20:54.359Z,98.39
2016-01-31T03:21:54.347Z,98.87
2016-01-31T03:22:54.302Z,98.49
2016-01-31T03:23:54.289Z,98.87
2016-01-31T03:24:54.245Z,98.49
2016-01-31T03:25:54.217Z,98.21
2016-01-31T03:26:54.188Z,98.77
2016-01-31T03:27:54.175Z,99.25
2016-01-31T03:28:54.131Z,98.58
2016-01-31T03:29:54.103Z,98.77
2016-01-31T03:30:54.076Z,98.96
2016-01-31T03:31:54.046Z,98.77
2016-01-31T03:32:54.018Z,99.25
2016-01-31T03:33:53.991Z,99.06
2016-01-31T03:34:53.963Z,99.06
2016-01-31T03:35:53.949Z,99.06
2016-01-31T03:36:53.904Z,98.96
2016-01-31T03:37:53.876Z,98.39
2016-01-31T03:38:53.850Z,98.21
2016-01-31T03:39:53.821Z,98.49
2016-01-31T03:40:53.793Z,98.39
2016-01-31T03:41:53.766Z,98.77
2016-01-31T03:42:53.737Z,98.21
2016-01-31T03:43:53.708Z,98.39
2016-01-31T03:44:53.682Z,98.39
2016-01-31T03:45:53.654Z,98.3
2016-01-31T03:46:53.626Z,98.68
2016-01-31T03:47:53.597Z,98.21
2016-01-31T03:48:53.570Z,98.21
2016-01-31T03:49:53.542Z,98.21
2016-01-31T03:50:53.517Z,98.77
2016-01-31T03:51:53.491Z,98.58
2016-01-31T03:52:53.462Z,98.58
2016-01-31T03:53:53.434Z,98.58
2016-01-31T03:54:53.405Z,98.3
2016-01-31T03:55:53.376Z,98.39
2016-01-31T03:56:53.348Z,98.39
2016-01-31T03:57:53.320Z,98.21
2016-01-31T03:58:53.292Z,98.39
2016-01-31T03:59:53.263Z,98.49
2016-01-31T04:00:53.234Z,98.3
2016-01-31T04:01:53.207Z,98.49
2016-01-31T04:02:53.177Z,98.3
2016-01-31T04:03:53.149Z,98.3
2016-01-31T04:04:53.122Z,98.3
2016-01-31T04:05:53.094Z,98.21
2016-01-31T04:06:53.064Z,98.3
2016-01-31T04:07:53.035Z,98.11
2016-01-31T04:08:53.008Z,98.49
2016-01-31T04:09:52.980Z,98.58
2016-01-31T04:10:52.966Z,98.58
2016-01-31T04:11:52.923Z,97.92
2016-01-31T04:12:52.897Z,98.58
2016-01-31T04:13:52.867Z,98.49
2016-01-31T04:14:52.840Z,98.49
2016-01-31T04:15:52.795Z,98.11
2016-01-31T04:16:52.783Z,98.39
2016-01-31T04:17:52.757Z,98.21
2016-01-31T04:18:52.729Z,98.39
2016-01-31T04:19:52.691Z,98.39
2016-01-31T04:20:52.663Z,98.21
2016-01-31T04:21:52.650Z,98.3
2016-01-31T04:22:52.603Z,98.21
2016-01-31T04:23:52.577Z,98.58
2016-01-31T04:24:52.549Z,98.39
2016-01-31T04:25:52.521Z,98.49
2016-01-31T04:26:52.492Z,98.3
2016-01-31T04:27:52.464Z,98.3
2016-01-31T04:28:52.437Z,98.11
2016-01-31T04:29:52.408Z,98.58
2016-01-31T04:30:52.379Z,98.58
2016-01-31T04:31:52.351Z,98.39
2016-01-31T04:32:52.325Z,98.49
2016-01-31T04:33:52.296Z,98.39
2016-01-31T04:34:52.268Z,98.58
2016-01-31T04:35:52.239Z,98.11
2016-01-31T04:36:52.196Z,98.58
2016-01-31T04:37:52.183Z,98.11
2016-01-31T04:38:52.139Z,98.39
2016-01-31T04:39:52.126Z,98.39
2016-01-31T04:40:52.097Z,98.49
2016-01-31T04:41:52.055Z,98.3
2016-01-31T04:42:52.026Z,98.3
2016-01-31T04:43:52.000Z,98.58
2016-01-31T04:44:51.973Z,98.11
2016-01-31T04:45:51.944Z,98.39
2016-01-31T04:46:51.915Z,98.39
2016-01-31T04:47:51.886Z,98.3
2016-01-31T04:48:51.859Z,98.39
2016-01-31T04:49:51.831Z,98.21
2016-01-31T04:50:51.802Z,98.02
2016-01-31T04:51:51.773Z,98.11
2016-01-31T04:52:51.746Z,98.11
2016-01-31T04:53:51.718Z,98.21
2016-01-31T04:54:51.688Z,98.3
2016-01-31T04:55:51.660Z,98.3
2016-01-31T04:56:51.633Z,98.11
2016-01-31T04:57:51.605Z,98.21
2016-01-31T04:58:51.576Z,98.21
2016-01-31T04:59:51.547Z,98.39
2016-01-31T05:00:51.519Z,98.39
2016-01-31T05:01:51.492Z,98.3
2016-01-31T05:02:51.462Z,97.83
2016-01-31T05:03:51.435Z,98.39
2016-01-31T05:04:51.422Z,98.39
2016-01-31T05:05:51.378Z,98.11
2016-01-31T05:06:51.349Z,98.11
2016-01-31T05:07:51.321Z,98.3
2016-01-31T05:08:51.293Z,98.39
2016-01-31T05:09:51.248Z,98.21
2016-01-31T05:10:51.235Z,97.92
2016-01-31T05:11:51.192Z,98.39
2016-01-31T05:12:51.179Z,98.49
2016-01-31T05:13:51.135Z,98.39
2016-01-31T05:14:51.106Z,98.58
2016-01-31T05:15:51.077Z,98.49
2016-01-31T05:16:51.049Z,98.39
2016-01-31T05:17:51.036Z,98.11
2016-01-31T05:18:50.992Z,98.58
2016-01-31T05:19:50.963Z,98.11
2016-01-31T05:20:50.937Z,98.02
2016-01-31T05:21:50.939Z,98.49
2016-01-31T05:22:50.880Z,98.49
2016-01-31T05:23:50.851Z,98.3
2016-01-31T05:24:50.823Z,97.83
2016-01-31T05:25:50.795Z,98.49
2016-01-31T05:26:50.766Z,98.49
2016-01-31T05:27:50.738Z,98.49
2016-01-31T05:28:50.710Z,98.58
2016-01-31T05:29:50.681Z,98.39
2016-01-31T05:30:50.653Z,98.49
2016-01-31T05:31:50.626Z,98.49
2016-01-31T05:32:50.598Z,98.49
2016-01-31T05:33:50.601Z,98.11
2016-01-31T05:34:50.541Z,98.3
2016-01-31T05:35:50.512Z,98.39
2016-01-31T05:36:50.486Z,98.49
2016-01-31T05:37:50.457Z,98.3
2016-01-31T05:38:50.427Z,98.21
2016-01-31T05:39:50.399Z,98.49
2016-01-31T05:40:50.373Z,98.49
2016-01-31T05:41:50.328Z,98.39
2016-01-31T05:42:50.300Z,98.39
2016-01-31T05:43:50.288Z,98.11
2016-01-31T05:44:50.243Z,98.21
2016-01-31T05:45:50.215Z,98.58
2016-01-31T05:46:50.189Z,98.49
2016-01-31T05:47:50.160Z,98.3
2016-01-31T05:48:50.132Z,98.39
2016-01-31T05:49:50.103Z,98.49
2016-01-31T05:50:50.090Z,98.11
2016-01-31T05:51:50.047Z,98.11
2016-01-31T05:52:50.018Z,98.11
2016-01-31T05:53:49.990Z,98.3
2016-01-31T05:54:49.962Z,98.49
2016-01-31T05:55:49.934Z,98.3
2016-01-31T05:56:49.905Z,98.3
2016-01-31T05:57:49.877Z,98.68
2016-01-31T05:58:49.848Z,98.3
2016-01-31T05:59:49.820Z,98.39
2016-01-31T06:00:49.794Z,98.87
2016-01-31T06:01:49.766Z,98.49
2016-01-31T06:02:49.737Z,98.49
2016-01-31T06:03:49.708Z,98.39
2016-01-31T06:04:49.666Z,98.49
2016-01-31T06:05:49.638Z,98.21
2016-01-31T06:06:49.627Z,98.58
2016-01-31T06:07:49.595Z,98.58
2016-01-31T06:08:49.551Z,98.39
2016-01-31T06:09:49.538Z,98.21
2016-01-31T06:10:49.494Z,98.3
2016-01-31T06:11:49.466Z,98.21
2016-01-31T06:12:49.453Z,98.11
2016-01-31T06:13:49.394Z,98.3
2016-01-31T06:14:49.350Z,98.21
2016-01-31T06:15:49.307Z,98.3
2016-01-31T06:16:49.262Z,98.39
2016-01-31T06:17:49.219Z,98.39
2016-01-31T06:18:49.186Z,98.3
2016-01-31T06:19:49.153Z,98.21
2016-01-31T06:20:49.119Z,98.68
2016-01-31T06:21:49.085Z,98.96
2016-01-31T06:22:49.052Z,99.25
2016-01-31T06:23:49.021Z,99.15
2016-01-31T06:24:48.992Z,98.96
2016-01-31T06:25:48.962Z,98.39
2016-01-31T06:26:48.934Z,98.87
2016-01-31T06:27:48.903Z,98.96
2016-01-31T06:28:48.873Z,99.06
2016-01-31T06:29:48.844Z,98.96
2016-01-31T06:30:48.817Z,98.96
2016-01-31T06:31:48.786Z,99.25
2016-01-31T06:32:48.758Z,99.06
2016-01-31T06:33:48.729Z,99.25
2016-01-31T06:34:48.700Z,99.25
2016-01-31T06:35:48.672Z,99.25
2016-01-31T06:36:48.644Z,98.96
2016-01-31T06:37:48.615Z,98.96
2016-01-31T06:38:48.587Z,98.96
2016-01-31T06:39:48.558Z,98.87
2016-01-31T06:40:48.530Z,98.87
2016-01-31T06:41:48.502Z,98.58
2016-01-31T06:42:48.473Z,99.06
2016-01-31T06:43:48.463Z,98.77
2016-01-31T06:44:48.404Z,98.39
2016-01-31T06:45:48.375Z,98.39
2016-01-31T06:46:48.347Z,98.39
2016-01-31T06:47:48.335Z,99.25
2016-01-31T06:48:48.290Z,99.34
2016-01-31T06:49:48.262Z,98.77
2016-01-31T06:50:48.250Z,98.49
2016-01-31T06:51:48.220Z,98.96
2016-01-31T06:52:48.191Z,98.96
2016-01-31T06:53:48.147Z,99.06
2016-01-31T06:54:48.135Z,98.3
2016-01-31T06:55:48.121Z,98.77
2016-01-31T06:56:48.077Z,98.21
2016-01-31T06:57:48.049Z,98.21
2016-01-31T06:58:48.021Z,98.49
2016-01-31T06:59:47.980Z,98.39
2016-01-31T07:00:47.951Z,98.39
2016-01-31T07:01:47.923Z,98.77
2016-01-31T07:02:47.894Z,99.44
2016-01-31T07:03:47.867Z,98.96
2016-01-31T07:04:47.854Z,98.68
2016-01-31T07:05:47.809Z,98.39
2016-01-31T07:06:47.781Z,98.39
2016-01-31T07:07:47.768Z,98.49
2016-01-31T07:08:47.724Z,98.39
2016-01-31T07:09:47.695Z,98.21
2016-01-31T07:10:47.684Z,98.39
2016-01-31T07:11:47.656Z,98.21
2016-01-31T07:12:47.611Z,98.82
2016-01-31T07:13:47.583Z,98.77
2016-01-31T07:14:47.559Z,98.87
2016-01-31T07:15:47.536Z,98.35
2016-01-31T07:16:47.509Z,98.35
2016-01-31T07:17:47.481Z,98.73
2016-01-31T07:18:47.452Z,98.39
2016-01-31T07:19:47.423Z,98.25
2016-01-31T07:20:47.395Z,98.44
2016-01-31T07:21:47.366Z,99.3
2016-01-31T07:22:47.338Z,99.01
2016-01-31T07:23:47.310Z,98.82
2016-01-31T07:24:47.281Z,99.01
2016-01-31T07:25:47.253Z,98.82
2016-01-31T07:26:47.224Z,98.25
2016-01-31T07:27:47.196Z,99.3
2016-01-31T07:28:47.168Z,99.01
2016-01-31T07:29:47.143Z,99.01
2016-01-31T07:30:47.114Z,98.82
2016-01-31T07:31:47.085Z,99.3
2016-01-31T07:32:47.057Z,99.11
2016-01-31T07:33:47.028Z,99.2
2016-01-31T07:34:47.001Z,99.11
2016-01-31T07:35:46.970Z,99.11
2016-01-31T07:36:46.973Z,99.3
2016-01-31T07:37:46.914Z,99.01
2016-01-31T07:38:46.885Z,99.3
2016-01-31T07:39:46.858Z,98.82
2016-01-31T07:40:46.829Z,99.11
2016-01-31T07:41:46.800Z,98.54
2016-01-31T07:42:46.772Z,98.44
2016-01-31T07:43:46.748Z,98.44
2016-01-31T07:44:46.719Z,98.44
2016-01-31T07:45:46.691Z,98.54
2016-01-31T07:46:46.661Z,98.44
2016-01-31T07:47:46.636Z,99.2
2016-01-31T07:48:46.607Z,98.44
2016-01-31T07:49:46.578Z,98.44
2016-01-31T07:50:46.550Z,98.63
2016-01-31T07:51:46.522Z,98.63
2016-01-31T07:52:46.494Z,98.35
2016-01-31T07:53:46.464Z,98.63
2016-01-31T07:54:46.436Z,98.92
2016-01-31T07:55:46.424Z,98.44
2016-01-31T07:56:46.394Z,98.73
2016-01-31T07:57:46.366Z,98.35
2016-01-31T07:58:46.339Z,98.54
2016-01-31T07:59:46.311Z,98.63
2016-01-31T08:00:46.281Z,98.54
2016-01-31T08:01:46.253Z,98.44
2016-01-31T08:02:46.226Z,98.44
2016-01-31T08:03:46.197Z,98.35
2016-01-31T08:04:46.168Z,98.35
2016-01-31T08:05:46.140Z,98.35
2016-01-31T08:06:46.111Z,98.25
2016-01-31T08:07:46.083Z,98.25
2016-01-31T08:08:46.055Z,98.25
2016-01-31T08:09:46.027Z,98.16
2016-01-31T08:10:45.998Z,98.73
2016-01-31T08:11:45.969Z,98.16
2016-01-31T08:12:45.941Z,98.44
2016-01-31T08:13:45.928Z,98.16
2016-01-31T08:14:45.899Z,98.16
2016-01-31T08:15:45.871Z,98.73
2016-01-31T08:16:45.842Z,98.16
2016-01-31T08:17:45.812Z,98.16
2016-01-31T08:18:45.784Z,98.73
2016-01-31T08:19:45.755Z,98.54
2016-01-31T08:20:45.727Z,98.54
2016-01-31T08:21:45.698Z,98.63
2016-01-31T08:22:45.686Z,98.44
2016-01-31T08:23:45.641Z,98.54
2016-01-31T08:24:45.629Z,98.63
2016-01-31T08:25:45.600Z,98.44
2016-01-31T08:26:45.572Z,98.44
2016-01-31T08:27:45.544Z,98.63
2016-01-31T08:28:45.515Z,98.63
2016-01-31T08:29:45.487Z,98.44
2016-01-31T08:30:45.458Z,98.49
2016-01-31T08:31:45.431Z,98.54
2016-01-31T08:32:45.402Z,98.68
2016-01-31T08:33:45.374Z,98.4
2016-01-31T08:34:45.346Z,98.02
2016-01-31T08:35:45.318Z,98.4
2016-01-31T08:36:45.305Z,98.49
2016-01-31T08:37:45.261Z,98.21
2016-01-31T08:38:45.249Z,98.21
2016-01-31T08:39:45.235Z,98.21
2016-01-31T08:40:45.191Z,98.21
2016-01-31T08:41:45.178Z,98.49
2016-01-31T08:42:45.137Z,98.21
2016-01-31T08:43:45.140Z,98.21
2016-01-31T08:44:45.080Z,98.21
2016-01-31T08:45:45.052Z,98.3
2016-01-31T08:46:45.073Z,98.3
2016-01-31T08:47:45.005Z,98.21
2016-01-31T08:48:44.976Z,98.49
2016-01-31T08:49:44.949Z,98.59
2016-01-31T08:50:44.920Z,98.59
2016-01-31T08:51:44.892Z,98.59
2016-01-31T08:52:44.865Z,98.49
2016-01-31T08:53:44.852Z,98.49
2016-01-31T08:54:44.805Z,98.02
2016-01-31T08:55:44.776Z,98.4
2016-01-31T08:56:44.763Z,98.21
2016-01-31T08:57:44.734Z,98.4
2016-01-31T08:58:44.706Z,98.3
2016-01-31T08:59:44.678Z,98.11
2016-01-31T09:00:44.648Z,97.55
2016-01-31T09:01:44.621Z,97.55
2016-01-31T09:02:44.594Z,98.11
2016-01-31T09:03:44.566Z,97.92
2016-01-31T09:04:44.537Z,97.55
2016-01-31T09:05:44.524Z,98.3
2016-01-31T09:06:44.482Z,97.55
2016-01-31T09:07:44.469Z,97.74
2016-01-31T09:08:44.441Z,97.92
2016-01-31T09:09:44.412Z,98.02
2016-01-31T09:10:44.383Z,98.02
2016-01-31T09:11:44.372Z,97.74
2016-01-31T09:12:44.327Z,98.02
2016-01-31T09:13:44.302Z,97.55
2016-01-31T09:14:44.289Z,97.45
2016-01-31T09:15:44.260Z,97.92
2016-01-31T09:16:44.231Z,97.55
2016-01-31T09:17:44.205Z,97.45
2016-01-31T09:18:44.177Z,97.45
2016-01-31T09:19:44.153Z,97.26
2016-01-31T09:20:44.125Z,97.36
2016-01-31T09:21:44.097Z,97.26
2016-01-31T09:22:44.069Z,97.45
2016-01-31T09:23:44.039Z,97.55
2016-01-31T09:24:44.011Z,98.02
2016-01-31T09:25:43.998Z,98.02
2016-01-31T09:26:43.970Z,97.78
2016-01-31T09:27:43.942Z,97.83
2016-01-31T09:28:43.913Z,98.07
2016-01-31T09:29:43.885Z,97.69
2016-01-31T09:30:43.857Z,97.88
2016-01-31T09:31:43.829Z,97.88
2016-01-31T09:32:43.800Z,97.97
2016-01-31T09:33:43.787Z,98.07
2016-01-31T09:34:43.758Z,97.88
2016-01-31T09:35:43.731Z,97.88
2016-01-31T09:36:43.702Z,97.97
2016-01-31T09:37:43.675Z,97.97
2016-01-31T09:38:43.647Z,98.07
2016-01-31T09:39:43.634Z,97.69
2016-01-31T09:40:43.589Z,98.07
2016-01-31T09:41:43.577Z,98.07
2016-01-31T09:42:43.548Z,97.31
2016-01-31T09:43:43.535Z,97.69
2016-01-31T09:44:43.496Z,97.31
2016-01-31T09:45:43.467Z,97.31
2016-01-31T09:46:43.438Z,97.5
2016-01-31T09:47:43.418Z,97.5
2016-01-31T09:48:43.408Z,97.31
2016-01-31T09:49:43.361Z,97.31
2016-01-31T09:50:43.334Z,97.78
2016-01-31T09:51:43.306Z,97.69
2016-01-31T09:52:43.292Z,97.41
2016-01-31T09:53:43.264Z,97.5
2016-01-31T09:54:43.235Z,97.5
2016-01-31T09:55:43.208Z,97.31
2016-01-31T09:56:43.179Z,97.5
2016-01-31T09:57:43.151Z,97.6
2016-01-31T09:58:43.124Z,97.41
2016-01-31T09:59:43.111Z,97.5
2016-01-31T10:00:43.082Z,97.41
2016-01-31T10:01:43.053Z,97.6
2016-01-31T10:02:43.025Z,97.69
2016-01-31T10:03:43.012Z,97.69
2016-01-31T10:04:42.968Z,97.31
2016-01-31T10:05:42.955Z,97.41
2016-01-31T10:06:42.928Z,97.41
2016-01-31T10:07:42.900Z,97.5
2016-01-31T10:08:42.886Z,97.69
2016-01-31T10:09:42.858Z,97.69
2016-01-31T10:10:42.817Z,97.6
2016-01-31T10:11:42.789Z,97.5
2016-01-31T10:12:42.776Z,97.31
2016-01-31T10:13:42.748Z,97.31
2016-01-31T10:14:42.719Z,97.41
2016-01-31T10:15:42.691Z,97.41
2016-01-31T10:16:42.678Z,97.5
2016-01-31T10:17:42.652Z,97.5
2016-01-31T10:18:42.623Z,97.22
2016-01-31T10:19:42.595Z,97.41
2016-01-31T10:20:42.566Z,97.41
2016-01-31T10:21:42.541Z,97.5
2016-01-31T10:22:42.512Z,97.69
2016-01-31T10:23:42.499Z,97.31
2016-01-31T10:24:42.471Z,97.36
2016-01-31T10:25:42.443Z,97.64
2016-01-31T10:26:42.415Z,97.45
2016-01-31T10:27:42.386Z,97.64
2016-01-31T10:28:42.374Z,97.45
2016-01-31T10:29:42.344Z,97.45
2016-01-31T10:30:42.316Z,97.27
2016-01-31T10:31:42.288Z,97.45
2016-01-31T10:32:42.274Z,97.64
2016-01-31T10:33:42.246Z,97.64
2016-01-31T10:34:42.219Z,97.07
2016-01-31T10:35:42.190Z,97.36
2016-01-31T10:36:42.161Z,97.27
2016-01-31T10:37:42.149Z,97.27
2016-01-31T10:38:42.119Z,97.27
2016-01-31T10:39:42.091Z,97.27
2016-01-31T10:40:42.078Z,97.36
2016-01-31T10:41:42.050Z,97.64
2016-01-31T10:42:42.022Z,97.92
2016-01-31T10:43:41.993Z,97.83
2016-01-31T10:44:41.964Z,97.64
2016-01-31T10:45:41.940Z,97.64
2016-01-31T10:46:41.927Z,97.64
2016-01-31T10:47:41.898Z,96.79
2016-01-31T10:48:41.869Z,96.98
2016-01-31T10:49:41.841Z,96.5
2016-01-31T10:50:41.831Z,96.69
2016-01-31T10:51:41.803Z,96.98
2016-01-31T10:52:41.772Z,96.6
2016-01-31T10:53:41.742Z,96.88
2016-01-31T10:54:41.717Z,97.07
2016-01-31T10:55:41.704Z,96.88
2016-01-31T10:56:41.675Z,96.79
2016-01-31T10:57:41.647Z,96.88
2016-01-31T10:58:41.620Z,96.88
2016-01-31T10:59:41.607Z,97.07
2016-01-31T11:00:41.579Z,96.69
2016-01-31T11:01:41.553Z,96.45
2016-01-31T11:02:41.524Z,96.5
2016-01-31T11:03:41.512Z,96.69
2016-01-31T11:04:41.483Z,96.5
2016-01-31T11:05:41.456Z,96.84
2016-01-31T11:06:41.443Z,96.98
2016-01-31T11:07:41.400Z,96.88
2016-01-31T11:08:41.386Z,96.6
2016-01-31T11:09:41.362Z,96.88
2016-01-31T11:10:41.333Z,96.69
2016-01-31T11:11:41.304Z,96.98
2016-01-31T11:12:41.291Z,97.17
2016-01-31T11:13:41.262Z,96.79
2016-01-31T11:14:41.238Z,96.98
2016-01-31T11:15:41.211Z,96.65
2016-01-31T11:16:41.198Z,96.98
2016-01-31T11:17:41.169Z,96.98
2016-01-31T11:18:41.144Z,96.84
2016-01-31T11:19:41.116Z,96.93
2016-01-31T11:20:41.102Z,96.6
2016-01-31T11:21:41.074Z,96.93
2016-01-31T11:22:41.046Z,96.45
2016-01-31T11:23:41.017Z,97.22
2016-01-31T11:24:41.004Z,96.79
2016-01-31T11:25:40.976Z,96.55
2016-01-31T11:26:40.947Z,96.93
2016-01-31T11:27:40.934Z,97.03
2016-01-31T11:28:40.906Z,96.93
2016-01-31T11:29:40.877Z,96.93
2016-01-31T11:30:40.849Z,96.36
2016-01-31T11:31:40.837Z,96.26
2016-01-31T11:32:40.807Z,96.45
2016-01-31T11:33:40.779Z,96.45
2016-01-31T11:34:40.767Z,96.17
2016-01-31T11:35:40.739Z,96.45
2016-01-31T11:36:40.710Z,96.45
2016-01-31T11:37:40.697Z,96.45
2016-01-31T11:38:40.669Z,96.65
2016-01-31T11:39:40.655Z,96.26
2016-01-31T11:40:40.627Z,95.98
2016-01-31T11:41:40.599Z,96.17
2016-01-31T11:42:40.571Z,96.17
2016-01-31T11:43:40.542Z,96.17
2016-01-31T11:44:40.529Z,96.08
2016-01-31T11:45:40.502Z,95.98
2016-01-31T11:46:40.473Z,96.17
2016-01-31T11:47:40.461Z,96.26
2016-01-31T11:48:40.431Z,96.26
2016-01-31T11:49:40.415Z,95.98
2016-01-31T11:50:40.386Z,95.98
2016-01-31T11:51:40.361Z,95.98
2016-01-31T11:52:40.333Z,96.17
2016-01-31T11:53:40.305Z,96.17
2016-01-31T11:54:40.290Z,96.26
2016-01-31T11:55:40.262Z,96.08
2016-01-31T11:56:40.249Z,95.6
2016-01-31T11:57:40.221Z,96.08
2016-01-31T11:58:40.197Z,95.89
2016-01-31T11:59:40.168Z,96.26
2016-01-31T12:00:40.140Z,96.17
2016-01-31T12:01:40.128Z,95.51
2016-01-31T12:02:40.099Z,95.51
2016-01-31T12:03:40.071Z,96.26
2016-01-31T12:04:40.058Z,95.98
2016-01-31T12:05:40.030Z,95.98
2016-01-31T12:06:40.002Z,96.17
2016-01-31T12:07:39.989Z,95.98
2016-01-31T12:08:39.961Z,96.26
2016-01-31T12:09:39.937Z,96.17
2016-01-31T12:10:39.908Z,96.08
2016-01-31T12:11:39.896Z,96.31
2016-01-31T12:12:39.867Z,96.5
2016-01-31T12:13:39.841Z,96.12
2016-01-31T12:14:39.828Z,95.84
2016-01-31T12:15:39.799Z,96.22
2016-01-31T12:16:39.771Z,95.94
2016-01-31T12:17:39.757Z,96.22
2016-01-31T12:18:39.734Z,95.84
2016-01-31T12:19:39.706Z,95.75
2016-01-31T12:20:39.677Z,95.84
2016-01-31T12:21:39.664Z,95.94
2016-01-31T12:22:39.652Z,95.46
2016-01-31T12:23:39.623Z,95.94
2016-01-31T12:24:39.595Z,95.84
2016-01-31T12:25:39.566Z,95.65
2016-01-31T12:26:39.537Z,95.75
2016-01-31T12:27:39.528Z,95.84
2016-01-31T12:28:39.499Z,95.94
2016-01-31T12:29:39.473Z,95.84
2016-01-31T12:30:39.444Z,95.84
2016-01-31T12:31:39.431Z,95.75
2016-01-31T12:32:39.403Z,96.03
2016-01-31T12:33:39.377Z,96.03
2016-01-31T12:34:39.364Z,95.94
2016-01-31T12:35:39.336Z,95.94
2016-01-31T12:36:39.322Z,95.84
2016-01-31T12:37:39.294Z,95.84
2016-01-31T12:38:39.267Z,95.65
2016-01-31T12:39:39.347Z,95.65
2016-01-31T12:40:39.225Z,95.84
2016-01-31T12:41:39.196Z,95.75
2016-01-31T12:42:39.172Z,95.75
2016-01-31T12:43:39.143Z,95.75
2016-01-31T12:44:39.130Z,95.94
2016-01-31T12:45:39.164Z,95.65
2016-01-31T12:46:39.076Z,95.75
2016-01-31T12:47:39.066Z,95.75
2016-01-31T12:48:39.038Z,95.36
2016-01-31T12:49:39.011Z,95.32
2016-01-31T12:50:38.983Z,95.79
2016-01-31T12:51:38.970Z,95.84
2016-01-31T12:52:38.941Z,95.84
2016-01-31T12:53:38.917Z,95.6
2016-01-31T12:54:38.889Z,95.51